Time;durP1;ratioP1;P1;durP2;ratioP2;P2;SDS_P1;SDS_P2;PMS_P1;PMS_P2;Temp;Humidity;BMP_temperature;BMP_pressure;BME280_temperature;BME280_humidity;BME280_pressure;Samples;Min_cycle;Max_cycle;Signal;HPM_P1;HPM_P2
2021/04/25 00:00:21;;;;;;;6.43;4.10;;;;;;;13.25;45.96;96704.00;5054078;28;20328;-60
2021/04/25 00:02:47;;;;;;;9.70;4.63;;;;;;;13.23;45.79;96706.06;5054966;28;20300;-64
2021/04/25 00:05:14;;;;;;;5.97;4.77;;;;;;;13.05;45.91;96713.34;5053780;28;20497;-61
2021/04/25 00:07:40;;;;;;;5.23;4.40;;;;;;;12.98;46.38;96699.44;5053371;28;20194;-64
2021/04/25 00:10:06;;;;;;;7.47;4.27;;;;;;;12.98;46.50;96700.25;5054973;28;20441;-64
2021/04/25 00:12:32;;;;;;;6.40;4.60;;;;;;;12.93;46.68;96700.16;5054905;28;20175;-64
2021/04/25 00:14:57;;;;;;;5.77;4.07;;;;;;;12.98;46.96;96708.16;5053543;28;20809;-61
2021/04/25 00:17:24;;;;;;;6.60;4.50;;;;;;;12.99;46.43;96698.44;5053294;28;20175;-61
2021/04/25 00:19:49;;;;;;;8.20;4.70;;;;;;;12.88;46.95;96705.28;5053587;28;20631;-64
2021/04/25 00:22:15;;;;;;;8.37;4.70;;;;;;;12.97;46.36;96689.94;5057298;28;20417;-63
2021/04/25 00:24:40;;;;;;;4.83;4.33;;;;;;;12.91;47.21;96696.13;5071670;28;20248;-61
2021/04/25 00:27:06;;;;;;;8.40;5.30;;;;;;;12.89;46.84;96690.28;5073181;28;20162;-65
2021/04/25 00:29:31;;;;;;;6.57;4.90;;;;;;;12.91;46.91;96693.50;5073353;28;20190;-64
2021/04/25 00:31:57;;;;;;;5.97;4.37;;;;;;;13.06;46.40;96696.50;5070297;28;20170;-64
2021/04/25 00:34:23;;;;;;;6.93;4.00;;;;;;;12.85;46.57;96694.41;5056280;28;20175;-65
2021/04/25 00:36:48;;;;;;;4.70;4.30;;;;;;;12.85;47.08;96695.22;5067097;28;20281;-61
2021/04/25 00:39:13;;;;;;;5.07;4.57;;;;;;;12.80;47.92;96704.84;5070142;28;20661;-64
2021/04/25 00:41:39;;;;;;;4.87;4.00;;;;;;;12.40;48.07;96691.56;5073159;28;20671;-63
2021/04/25 00:44:08;;;;;;;5.83;4.67;;;;;;;12.45;48.22;96689.03;5073566;28;20169;-61
2021/04/25 00:46:33;;;;;;;4.97;4.10;;;;;;;12.54;47.84;96689.53;5073390;28;20163;-64
2021/04/25 00:48:58;;;;;;;5.53;3.83;;;;;;;12.59;47.84;96684.34;5072246;28;20449;-64
2021/04/25 00:51:24;;;;;;;5.40;4.57;;;;;;;12.52;48.62;96683.66;5071573;28;20190;-64
2021/04/25 00:53:50;;;;;;;5.20;4.70;;;;;;;12.32;48.46;96678.72;5065802;28;20224;-60
2021/04/25 00:56:16;;;;;;;5.07;4.30;;;;;;;12.29;48.85;96677.34;5072229;28;20286;-60
2021/04/25 00:58:42;;;;;;;5.23;4.43;;;;;;;12.28;48.95;96678.38;5072680;28;20432;-61
2021/04/25 01:01:08;;;;;;;5.10;4.17;;;;;;;12.23;48.73;96678.25;5073244;28;20922;-61
2021/04/25 01:03:34;;;;;;;6.33;4.30;;;;;;;12.25;48.99;96683.28;5075845;28;20405;-61
2021/04/25 01:05:59;;;;;;;6.53;4.30;;;;;;;12.12;49.43;96686.16;5075681;28;20415;-61
2021/04/25 01:08:25;;;;;;;5.60;3.93;;;;;;;11.76;50.48;96679.19;5073999;28;20198;-61
2021/04/25 01:10:50;;;;;;;5.10;4.03;;;;;;;11.67;50.18;96682.41;5077208;28;20212;-60
2021/04/25 01:13:17;;;;;;;4.20;3.80;;;;;;;11.79;50.89;96681.41;5077226;28;20170;-65
2021/04/25 01:15:42;;;;;;;5.17;4.43;;;;;;;11.92;50.96;96685.66;5076600;28;20257;-64
2021/04/25 01:18:08;;;;;;;5.30;4.90;;;;;;;11.95;50.71;96679.94;5056640;28;20437;-60
2021/04/25 01:20:34;;;;;;;4.63;4.23;;;;;;;12.03;50.55;96688.31;5056980;28;20192;-64
2021/04/25 01:22:59;;;;;;;8.30;4.53;;;;;;;11.92;50.71;96681.19;5069572;28;20179;-61
2021/04/25 01:25:26;;;;;;;5.40;3.87;;;;;;;11.98;50.14;96682.91;5064021;28;20178;-64
2021/04/25 01:27:52;;;;;;;5.87;4.43;;;;;;;11.95;50.61;96686.00;5076610;28;20166;-60
2021/04/25 01:30:24;;;;;;;5.47;4.13;;;;;;;11.97;50.30;96689.22;5076767;28;20425;-60
2021/04/25 01:32:49;;;;;;;4.53;4.10;;;;;;;11.96;50.38;96686.78;5076284;28;20174;-62
2021/04/25 01:35:22;;;;;;;6.43;4.20;;;;;;;11.90;50.41;96693.75;5074579;28;20452;-60
2021/04/25 01:37:52;;;;;;;5.87;4.30;;;;;;;11.95;50.29;96695.75;5075706;28;20167;-64
2021/04/25 01:40:19;;;;;;;5.43;4.43;;;;;;;12.04;49.92;96689.94;5075116;28;20428;-60
2021/04/25 01:42:45;;;;;;;4.53;4.07;;;;;;;11.98;49.90;96688.19;5067595;28;20424;-64
2021/04/25 01:45:17;;;;;;;5.50;3.80;;;;;;;11.89;50.40;96692.19;5056432;28;20413;-64
2021/04/25 01:47:45;;;;;;;6.30;4.33;;;;;;;11.86;50.49;96708.44;5069941;28;20637;-64
2021/04/25 01:50:10;;;;;;;4.83;4.27;;;;;;;11.92;50.44;96704.88;5074529;28;20448;-60
2021/04/25 01:52:36;;;;;;;8.13;4.40;;;;;;;11.91;50.52;96711.19;5068680;28;20442;-64
2021/04/25 01:55:03;;;;;;;5.83;4.17;;;;;;;11.78;50.55;96705.28;5063824;28;20195;-60
2021/04/25 01:57:28;;;;;;;7.23;4.17;;;;;;;11.74;51.01;96707.56;5071744;28;20179;-60
2021/04/25 01:59:54;;;;;;;7.93;4.77;;;;;;;11.65;51.70;96700.25;5076397;28;20428;-64
2021/04/25 02:02:19;;;;;;;7.00;4.03;;;;;;;11.67;51.24;96712.13;5076279;28;20171;-64
2021/04/25 02:04:44;;;;;;;6.47;5.07;;;;;;;11.68;50.95;96705.03;5074810;28;20208;-61
2021/04/25 02:07:10;;;;;;;6.67;4.87;;;;;;;11.57;51.46;96706.59;5056121;28;20191;-64
2021/04/25 02:09:35;;;;;;;7.63;4.40;;;;;;;11.63;51.69;96702.25;5054749;28;20191;-64
2021/04/25 02:12:00;;;;;;;5.93;4.40;;;;;;;11.48;52.05;96699.22;5056060;28;20538;-60
2021/04/25 02:14:26;;;;;;;5.30;4.23;;;;;;;11.56;52.02;96696.28;5055415;28;20251;-64
2021/04/25 02:16:52;;;;;;;4.97;4.27;;;;;;;11.51;52.03;96696.94;5056594;28;20238;-62
2021/04/25 02:19:17;;;;;;;5.20;3.93;;;;;;;11.51;51.31;96704.84;5061451;28;20231;-64
2021/04/25 02:21:43;;;;;;;9.83;6.10;;;;;;;11.45;51.56;96697.03;5055904;28;20179;-62
2021/04/25 02:24:09;;;;;;;7.20;5.13;;;;;;;11.30;52.32;96698.19;5056933;28;20579;-63
2021/04/25 02:26:34;;;;;;;8.97;4.80;;;;;;;11.44;51.63;96696.22;5066930;28;20186;-63
2021/04/25 02:29:00;;;;;;;5.60;4.23;;;;;;;11.32;52.10;96700.63;5055283;28;20209;-60
2021/04/25 02:31:25;;;;;;;5.83;4.47;;;;;;;11.32;52.52;96695.38;5056811;28;20361;-64
2021/04/25 02:33:50;;;;;;;6.70;4.63;;;;;;;11.40;52.49;96689.78;5055585;28;20666;-61
2021/04/25 02:36:16;;;;;;;5.50;3.90;;;;;;;11.41;52.02;96688.78;5073011;28;20541;-64
2021/04/25 02:38:41;;;;;;;5.10;4.37;;;;;;;11.28;52.46;96692.38;5073859;28;20553;-62
2021/04/25 02:41:06;;;;;;;4.97;4.40;;;;;;;11.25;52.30;96684.91;5075441;28;20214;-60
2021/04/25 02:43:32;;;;;;;5.50;4.40;;;;;;;11.26;52.40;96694.44;5075493;28;20179;-64
2021/04/25 02:45:57;;;;;;;7.07;5.37;;;;;;;11.30;52.79;96690.31;5073767;28;20191;-60
2021/04/25 02:48:23;;;;;;;6.73;4.60;;;;;;;11.22;52.71;96684.56;5074936;28;20185;-64
2021/04/25 02:50:48;;;;;;;6.20;4.70;;;;;;;11.17;52.50;96685.25;5075471;28;20216;-64
2021/04/25 02:53:14;;;;;;;6.43;4.50;;;;;;;11.14;52.46;96685.66;5071126;28;20170;-64
2021/04/25 02:55:40;;;;;;;7.20;5.47;;;;;;;11.13;52.60;96678.81;5062131;28;20290;-65
2021/04/25 02:58:07;;;;;;;7.43;4.77;;;;;;;11.04;53.40;96681.94;5075025;28;20184;-63
2021/04/25 03:00:32;;;;;;;4.43;4.03;;;;;;;11.05;53.67;96686.19;5065882;28;20444;-61
2021/04/25 03:02:58;;;;;;;6.53;4.20;;;;;;;10.97;53.00;96686.47;5075369;28;20416;-64
2021/04/25 03:05:25;;;;;;;10.17;5.70;;;;;;;10.97;53.58;96681.22;5071106;28;20579;-60
2021/04/25 03:07:51;;;;;;;6.80;5.17;;;;;;;10.87;53.66;96673.84;5062210;28;20652;-61
2021/04/25 03:10:17;;;;;;;5.83;4.40;;;;;;;10.84;53.67;96678.75;5074723;28;20475;-61
2021/04/25 03:12:44;;;;;;;5.53;4.30;;;;;;;10.81;53.93;96676.56;5064598;28;20436;-61
2021/04/25 03:15:11;;;;;;;6.87;4.97;;;;;;;10.68;53.93;96685.38;5055032;28;20454;-64
2021/04/25 03:17:37;;;;;;;4.70;4.20;;;;;;;10.55;54.61;96680.25;5054523;28;20402;-64
2021/04/25 03:20:06;;;;;;;4.97;4.47;;;;;;;10.60;54.15;96674.38;5058149;28;20493;-64
2021/04/25 03:22:32;;;;;;;6.47;5.00;;;;;;;10.47;54.88;96682.38;5074908;28;20837;-64
2021/04/25 03:24:57;;;;;;;5.80;5.00;;;;;;;10.25;55.83;96671.47;5064809;28;20417;-60
2021/04/25 03:27:23;;;;;;;6.67;4.70;;;;;;;10.38;55.93;96680.00;5067980;28;20220;-64
2021/04/25 03:29:48;;;;;;;6.07;4.80;;;;;;;10.42;55.36;96677.75;5074504;28;20194;-64
2021/04/25 03:32:13;;;;;;;8.57;5.17;;;;;;;10.50;55.15;96668.78;5074458;28;20547;-61
2021/04/25 03:34:39;;;;;;;8.40;4.80;;;;;;;10.54;54.87;96676.03;5072243;28;20244;-62
2021/04/25 03:37:04;;;;;;;6.30;5.27;;;;;;;10.58;54.97;96673.78;5058608;28;20176;-64
2021/04/25 03:39:30;;;;;;;7.93;4.70;;;;;;;10.50;55.33;96674.84;5054212;28;20203;-64
2021/04/25 03:41:56;;;;;;;5.83;4.77;;;;;;;10.51;55.47;96675.66;5054595;28;20190;-64
2021/04/25 03:44:21;;;;;;;5.43;4.87;;;;;;;10.44;55.61;96674.91;5071534;28;20177;-64
2021/04/25 03:46:47;;;;;;;6.53;5.30;;;;;;;10.31;56.44;96668.75;5058817;28;20747;-62
2021/04/25 03:49:19;;;;;;;9.33;4.97;;;;;;;10.33;55.79;96674.59;5053725;28;20195;-64
2021/04/25 03:51:44;;;;;;;6.90;4.83;;;;;;;10.34;55.58;96683.28;5054159;28;20537;-62
2021/04/25 03:54:10;;;;;;;6.17;5.20;;;;;;;10.31;55.43;96681.91;5063892;28;20421;-60
2021/04/25 03:56:35;;;;;;;7.20;5.47;;;;;;;10.43;55.65;96681.19;5065017;28;20195;-64
2021/04/25 03:59:01;;;;;;;7.80;4.70;;;;;;;10.41;55.90;96685.84;5053637;28;20193;-60
2021/04/25 04:01:26;;;;;;;6.77;4.90;;;;;;;10.31;55.99;96689.78;5060759;28;20205;-60
2021/04/25 04:03:51;;;;;;;5.83;5.30;;;;;;;10.38;55.59;96695.78;5072193;28;20173;-64
2021/04/25 04:06:17;;;;;;;5.40;4.53;;;;;;;10.26;55.81;96686.19;5067125;28;20174;-60
2021/04/25 04:08:42;;;;;;;5.63;4.33;;;;;;;10.32;55.62;96686.16;5061682;28;20590;-64
2021/04/25 04:11:07;;;;;;;5.97;5.33;;;;;;;10.27;56.02;96690.44;5066880;28;20174;-63
2021/04/25 04:13:33;;;;;;;7.17;5.30;;;;;;;10.28;55.53;96692.84;5067994;28;20265;-60
2021/04/25 04:15:58;;;;;;;4.93;4.20;;;;;;;10.29;56.08;96688.41;5073069;28;20197;-64
2021/04/25 04:18:24;;;;;;;6.07;4.77;;;;;;;10.23;56.53;96686.63;5073226;28;20228;-65
2021/04/25 04:20:49;;;;;;;6.03;4.73;;;;;;;10.29;55.86;96694.44;5068447;28;20608;-61
2021/04/25 04:23:14;;;;;;;5.67;4.70;;;;;;;10.26;55.71;96696.69;5053521;28;20270;-64
2021/04/25 04:25:40;;;;;;;6.27;5.20;;;;;;;10.10;56.24;96700.66;5065700;28;20521;-61
2021/04/25 04:28:05;;;;;;;7.70;4.87;;;;;;;10.09;56.23;96696.41;5053206;28;20179;-63
2021/04/25 04:30:30;;;;;;;5.17;4.60;;;;;;;9.80;57.65;96693.59;5053469;28;20229;-60
2021/04/25 04:32:56;;;;;;;5.53;4.87;;;;;;;9.92;57.22;96697.13;5055192;28;20691;-63
2021/04/25 04:35:21;;;;;;;6.23;5.50;;;;;;;10.03;57.24;96699.06;5072646;28;20201;-63
2021/04/25 04:37:47;;;;;;;6.30;5.37;;;;;;;10.00;57.47;96707.38;5052852;28;20526;-63
2021/04/25 04:40:13;;;;;;;7.03;4.40;;;;;;;10.01;57.71;96701.91;5052282;28;20207;-60
2021/04/25 04:42:38;;;;;;;5.93;4.67;;;;;;;10.02;57.85;96706.13;5052367;28;20574;-60
2021/04/25 04:45:05;;;;;;;6.40;5.00;;;;;;;10.01;57.71;96712.41;5053425;28;20411;-60
2021/04/25 04:47:30;;;;;;;8.97;5.37;;;;;;;9.89;57.87;96718.56;5059502;28;20180;-61
2021/04/25 04:49:55;;;;;;;6.13;5.13;;;;;;;9.87;58.07;96731.91;5073084;28;20925;-59
2021/04/25 04:52:21;;;;;;;5.93;4.70;;;;;;;9.93;58.08;96728.41;5058758;28;20184;-61
2021/04/25 04:54:47;;;;;;;6.83;5.03;;;;;;;9.98;58.31;96736.44;5067593;28;20699;-63
2021/04/25 04:57:15;;;;;;;6.87;5.33;;;;;;;10.03;57.77;96734.00;5065089;28;20191;-61
2021/04/25 04:59:41;;;;;;;7.80;5.40;;;;;;;10.05;57.22;96731.16;5072564;28;20476;-63
2021/04/25 05:02:06;;;;;;;6.60;5.30;;;;;;;9.71;59.00;96736.84;5065375;28;20421;-61
2021/04/25 05:04:32;;;;;;;6.97;4.80;;;;;;;9.73;58.95;96729.56;5073258;28;20441;-63
2021/04/25 05:06:57;;;;;;;11.33;5.87;;;;;;;9.38;60.07;96727.31;5058201;28;20178;-61
2021/04/25 05:09:23;;;;;;;8.70;5.40;;;;;;;9.26;60.46;96731.59;5052802;28;20193;-63
2021/04/25 05:11:48;;;;;;;5.00;4.50;;;;;;;9.35;60.84;96730.34;5065925;28;20233;-63
2021/04/25 05:14:13;;;;;;;6.03;5.33;;;;;;;9.46;60.15;96738.59;5056151;28;20173;-59
2021/04/25 05:16:39;;;;;;;8.67;5.17;;;;;;;9.54;60.52;96735.72;5068690;28;20291;-60
2021/04/25 05:19:04;;;;;;;6.90;5.57;;;;;;;9.73;60.13;96737.44;5072538;28;20578;-60
2021/04/25 05:21:29;;;;;;;7.90;4.83;;;;;;;9.70;59.81;96741.28;5073553;28;20181;-61
2021/04/25 05:23:55;;;;;;;6.77;5.00;;;;;;;9.75;59.89;96738.81;5070987;28;20204;-61
2021/04/25 05:26:20;;;;;;;7.37;5.40;;;;;;;9.90;59.79;96741.16;5056287;28;20182;-60
2021/04/25 05:28:45;;;;;;;8.50;5.00;;;;;;;9.96;59.49;96737.69;5068955;28;20190;-63
2021/04/25 05:31:11;;;;;;;8.30;6.20;;;;;;;9.96;59.13;96745.56;5069766;28;20189;-60
2021/04/25 05:33:36;;;;;;;6.50;5.00;;;;;;;10.02;59.56;96744.69;5071229;28;20181;-64
2021/04/25 05:36:02;;;;;;;10.33;5.77;;;;;;;10.07;59.44;96731.75;5072519;28;20688;-63
2021/04/25 05:38:27;;;;;;;7.57;6.07;;;;;;;10.17;59.33;96747.88;5053399;28;20192;-61
2021/04/25 05:40:52;;;;;;;6.00;5.40;;;;;;;10.25;59.48;96745.00;5052906;28;20302;-60
2021/04/25 05:43:18;;;;;;;8.33;5.90;;;;;;;10.20;59.02;96743.00;5061370;28;20185;-61
2021/04/25 05:45:43;;;;;;;8.07;6.23;;;;;;;10.34;58.87;96741.88;5056821;28;20175;-60
2021/04/25 05:48:09;;;;;;;7.10;5.10;;;;;;;10.30;59.41;96745.16;5072294;28;20652;-63
2021/04/25 05:50:34;;;;;;;7.73;5.47;;;;;;;10.26;58.95;96750.03;5076424;28;20245;-63
2021/04/25 05:53:00;;;;;;;6.90;5.13;;;;;;;10.09;59.57;96748.16;5065296;28;20224;-63
2021/04/25 05:55:25;;;;;;;8.07;5.70;;;;;;;10.20;59.34;96756.13;5066309;28;20197;-63
2021/04/25 05:57:51;;;;;;;7.90;5.67;;;;;;;10.24;58.63;96754.69;5070801;28;20181;-60
2021/04/25 06:00:25;;;;;;;7.10;5.80;;;;;;;10.20;59.12;96758.75;5056348;28;20206;-61
2021/04/25 06:02:52;;;;;;;6.47;5.63;;;;;;;10.18;59.01;96752.91;5057370;28;20182;-63
2021/04/25 06:05:19;;;;;;;10.33;6.03;;;;;;;10.08;59.88;96760.41;5056161;28;20531;-63
2021/04/25 06:07:44;;;;;;;6.53;5.83;;;;;;;10.20;59.92;96753.50;5055836;28;20432;-60
2021/04/25 06:10:12;;;;;;;8.13;5.20;;;;;;;10.25;60.17;96758.91;5055781;28;20437;-64
2021/04/25 06:12:38;;;;;;;7.10;5.80;;;;;;;10.34;59.63;96769.97;5064592;28;20185;-63
2021/04/25 06:15:05;;;;;;;7.80;6.23;;;;;;;10.35;59.58;96766.31;5075053;28;20783;-65
2021/04/25 06:17:31;;;;;;;10.53;6.20;;;;;;;10.57;59.37;96772.00;5068846;28;20838;-61
2021/04/25 06:19:56;;;;;;;6.07;5.47;;;;;;;10.70;59.14;96771.88;5055717;28;20454;-61
2021/04/25 06:22:22;;;;;;;8.07;6.20;;;;;;;10.83;59.54;96769.16;5057003;28;20186;-64
2021/04/25 06:24:47;;;;;;;12.23;7.30;;;;;;;11.01;59.07;96782.31;5060395;28;20213;-61
2021/04/25 06:27:13;;;;;;;8.00;7.10;;;;;;;11.10;58.13;96773.94;5062917;28;20182;-63
2021/04/25 06:29:38;;;;;;;12.67;7.93;;;;;;;11.17;58.10;96769.41;5055747;28;20555;-62
2021/04/25 06:32:04;;;;;;;9.53;7.80;;;;;;;11.27;57.93;96776.75;5068747;28;20186;-63
2021/04/25 06:34:30;;;;;;;9.93;7.23;;;;;;;11.32;57.79;96769.03;5073736;28;20206;-63
2021/04/25 06:36:56;;;;;;;10.23;8.30;;;;;;;11.42;58.16;96774.56;5070529;28;20560;-64
2021/04/25 06:39:21;;;;;;;12.57;7.67;;;;;;;11.36;57.86;96780.69;5073590;28;20979;-63
2021/04/25 06:41:47;;;;;;;11.17;7.80;;;;;;;11.36;57.73;96776.25;5075705;28;20177;-63
2021/04/25 06:44:12;;;;;;;12.73;7.70;;;;;;;11.36;58.15;96775.44;5074722;28;20265;-64
2021/04/25 06:46:38;;;;;;;9.93;7.83;;;;;;;11.17;59.05;96776.47;5075487;28;20167;-61
2021/04/25 06:49:03;;;;;;;12.57;8.47;;;;;;;11.17;58.99;96785.19;5072256;28;20202;-63
2021/04/25 06:51:29;;;;;;;11.20;7.43;;;;;;;11.34;58.20;96782.78;5063426;28;20198;-61
2021/04/25 06:53:55;;;;;;;13.30;9.00;;;;;;;11.49;58.41;96774.47;5057703;28;20222;-61
2021/04/25 06:56:20;;;;;;;9.93;7.50;;;;;;;11.51;57.74;96775.06;5062170;28;20234;-62
2021/04/25 06:58:46;;;;;;;14.03;8.60;;;;;;;11.65;57.28;96779.97;5074764;28;20320;-63
2021/04/25 07:01:11;;;;;;;12.23;9.40;;;;;;;11.81;56.68;96783.84;5074951;28;20170;-61
2021/04/25 07:03:38;;;;;;;9.80;8.73;;;;;;;11.94;56.63;96779.19;5059783;28;20555;-63
2021/04/25 07:06:04;;;;;;;11.47;8.77;;;;;;;11.66;58.24;96776.34;5067405;28;20612;-61
2021/04/25 07:08:30;;;;;;;18.37;9.77;;;;;;;11.55;58.72;96781.50;5073028;28;20929;-63
2021/04/25 07:10:55;;;;;;;11.50;9.00;;;;;;;11.72;58.63;96783.34;5075105;28;20427;-61
2021/04/25 07:13:21;;;;;;;11.50;9.33;;;;;;;11.73;57.58;96792.84;5072916;28;20262;-61
2021/04/25 07:15:47;;;;;;;10.93;9.83;;;;;;;11.86;57.89;96791.88;5074703;28;20550;-61
2021/04/25 07:18:13;;;;;;;13.33;8.70;;;;;;;12.01;56.40;96790.44;5074069;28;20420;-63
2021/04/25 07:20:39;;;;;;;12.07;9.23;;;;;;;12.06;56.94;96792.41;5072455;28;20435;-63
2021/04/25 07:23:05;;;;;;;12.17;8.30;;;;;;;12.17;55.62;96786.38;5062555;28;20178;-61
2021/04/25 07:25:31;;;;;;;11.33;9.90;;;;;;;12.35;55.28;96783.69;5060936;28;20417;-61
2021/04/25 07:27:56;;;;;;;13.60;8.83;;;;;;;12.34;55.63;96782.06;5059109;28;20171;-63
2021/04/25 07:30:22;;;;;;;13.30;9.77;;;;;;;12.39;54.72;96782.22;5054488;28;20454;-60
2021/04/25 07:32:48;;;;;;;12.93;9.57;;;;;;;12.34;55.56;96782.88;5054553;28;20672;-61
2021/04/25 07:35:13;;;;;;;11.50;9.70;;;;;;;12.30;55.53;96773.81;5064014;28;20449;-63
2021/04/25 07:37:39;;;;;;;12.00;10.50;;;;;;;12.04;53.78;96786.56;5071804;28;20179;-60
2021/04/25 07:40:06;;;;;;;12.50;10.20;;;;;;;12.27;54.24;96774.25;5073864;28;20211;-63
2021/04/25 07:42:31;;;;;;;12.87;11.17;;;;;;;12.43;54.03;96777.28;5074428;28;20166;-61
2021/04/25 07:44:57;;;;;;;12.80;10.20;;;;;;;12.37;55.66;96774.50;5066108;28;20418;-60
2021/04/25 07:47:22;;;;;;;10.13;9.07;;;;;;;12.55;54.64;96778.09;5062643;28;20202;-61
2021/04/25 07:49:48;;;;;;;12.13;9.90;;;;;;;12.72;53.72;96784.31;5053888;28;20210;-60
2021/04/25 07:52:14;;;;;;;13.53;10.80;;;;;;;12.69;53.83;96776.84;5072465;28;20602;-60
2021/04/25 07:54:39;;;;;;;12.60;10.53;;;;;;;12.90;53.41;96771.81;5072295;28;20225;-63
2021/04/25 07:57:05;;;;;;;12.27;10.53;;;;;;;12.89;53.69;96770.22;5071297;28;20543;-64
2021/04/25 07:59:32;;;;;;;12.30;10.70;;;;;;;12.96;53.60;96770.09;5062554;28;20631;-63
2021/04/25 08:01:58;;;;;;;11.20;10.03;;;;;;;13.10;53.93;96777.56;5063351;28;20493;-58
2021/04/25 08:04:23;;;;;;;13.00;10.30;;;;;;;13.16;53.36;96773.19;5060750;28;20175;-72
2021/04/25 08:06:49;;;;;;;12.87;10.50;;;;;;;13.22;53.11;96772.28;5055212;28;20505;-63
2021/04/25 08:09:14;;;;;;;11.37;10.20;;;;;;;13.13;52.75;96771.84;5058657;28;20194;-64
2021/04/25 08:11:40;;;;;;;12.80;9.73;;;;;;;13.28;52.14;96766.06;5064079;28;20611;-61
2021/04/25 08:14:05;;;;;;;12.80;9.93;;;;;;;13.47;51.66;96766.72;5062769;28;20584;-63
2021/04/25 08:16:31;;;;;;;12.63;10.30;;;;;;;12.98;53.71;96768.03;5062793;28;20763;-64
2021/04/25 08:18:56;;;;;;;13.50;10.97;;;;;;;13.10;53.19;96772.28;5069592;28;20699;-63
2021/04/25 08:21:24;;;;;;;11.70;10.50;;;;;;;12.92;54.04;96775.03;5073931;28;20194;-60
2021/04/25 08:23:50;;;;;;;12.70;10.90;;;;;;;13.33;54.22;96771.47;5061898;28;20277;-63
2021/04/25 08:26:15;;;;;;;15.40;11.10;;;;;;;13.43;52.83;96775.13;5072706;28;20946;-64
2021/04/25 08:28:40;;;;;;;16.27;10.77;;;;;;;13.61;51.61;96775.97;5073036;28;20235;-64
2021/04/25 08:31:06;;;;;;;12.90;11.60;;;;;;;13.57;50.44;96769.56;5073530;28;20175;-64
2021/04/25 08:33:31;;;;;;;14.33;11.20;;;;;;;13.56;52.48;96773.25;5069201;28;20171;-63
2021/04/25 08:35:57;;;;;;;12.37;10.83;;;;;;;13.66;52.74;96784.03;5059291;28;20248;-64
2021/04/25 08:38:22;;;;;;;13.40;10.97;;;;;;;13.93;50.49;96777.16;5072653;28;20182;-67
2021/04/25 08:40:48;;;;;;;16.03;10.93;;;;;;;14.01;49.93;96771.47;5064191;28;20176;-62
2021/04/25 08:43:14;;;;;;;17.70;11.70;;;;;;;13.99;50.56;96782.28;5052548;28;20183;-63
2021/04/25 08:45:41;;;;;;;12.70;11.60;;;;;;;13.70;53.22;96777.22;5061857;28;20254;-61
2021/04/25 08:48:10;;;;;;;17.30;12.60;;;;;;;13.68;51.70;96774.81;5056071;28;20418;-62
2021/04/25 08:50:36;;;;;;;13.10;11.70;;;;;;;13.80;53.07;96780.06;5061058;28;20457;-62
2021/04/25 08:53:01;;;;;;;18.17;11.83;;;;;;;14.00;53.51;96781.25;5062006;28;20859;-62
2021/04/25 08:55:27;;;;;;;13.23;11.40;;;;;;;14.13;50.52;96777.53;5059372;28;20199;-64
2021/04/25 08:57:53;;;;;;;16.87;11.60;;;;;;;14.32;49.69;96781.56;5061183;28;20274;-61
2021/04/25 09:00:19;;;;;;;12.10;10.40;;;;;;;14.57;48.72;96775.91;5069727;28;20206;-64
2021/04/25 09:02:46;;;;;;;12.03;10.70;;;;;;;14.62;50.13;96783.94;5064344;28;20633;-62
2021/04/25 09:05:12;;;;;;;13.60;10.40;;;;;;;14.86;47.59;96777.41;5061591;28;20809;-62
2021/04/25 09:07:52;;;;;;;12.00;9.83;;;;;;;14.79;49.40;96784.72;5064144;28;20435;-64
2021/04/25 09:10:18;;;;;;;12.57;10.90;;;;;;;14.41;49.05;96777.50;5062409;28;20919;-62
2021/04/25 09:12:45;;;;;;;16.20;11.07;;;;;;;14.12;49.93;96775.91;5072614;28;20421;-63
2021/04/25 09:15:10;;;;;;;13.00;11.60;;;;;;;14.53;50.13;96775.56;5059745;28;20441;-62
2021/04/25 09:17:50;;;;;;;12.70;10.47;;;;;;;14.59;50.00;96777.28;5072652;28;20448;-63
2021/04/25 09:20:17;;;;;;;12.60;10.93;;;;;;;14.61;49.62;96774.38;5063455;28;20194;-65
2021/04/25 09:22:52;;;;;;;11.67;9.50;;;;;;;14.82;47.81;96778.97;5061339;28;20471;-65
2021/04/25 09:25:19;;;;;;;9.83;8.83;;;;;;;14.85;46.51;96771.34;5060777;28;20498;-63
2021/04/25 09:27:46;;;;;;;11.93;10.43;;;;;;;15.12;48.09;96779.41;5056433;28;20413;-66
2021/04/25 09:30:18;;;;;;;12.83;11.10;;;;;;;15.13;46.27;96773.84;5056771;28;20429;-64
2021/04/25 09:32:44;;;;;;;11.87;10.07;;;;;;;15.32;47.03;96774.38;5066151;28;20424;-64
2021/04/25 09:35:12;;;;;;;14.80;11.10;;;;;;;15.20;46.99;96773.69;5062017;28;20509;-65
2021/04/25 09:37:43;;;;;;;11.70;10.20;;;;;;;15.14;46.54;96770.19;5064673;28;20244;-65
2021/04/25 09:40:15;;;;;;;11.50;10.30;;;;;;;15.47;46.11;96760.56;5066516;28;20502;-66
2021/04/25 09:43:04;;;;;;;11.97;10.57;;;;;;;15.67;46.93;96766.13;5068936;28;20431;-64
2021/04/25 09:45:35;;;;;;;11.47;9.70;;;;;;;15.29;47.34;96767.72;5062096;28;20500;-65
2021/04/25 09:48:18;;;;;;;12.70;9.63;;;;;;;15.33;47.10;96763.53;5075498;28;20425;-64
2021/04/25 09:50:44;;;;;;;11.60;10.40;;;;;;;15.60;47.30;96768.16;5075617;28;20423;-66
2021/04/25 09:53:18;;;;;;;11.87;9.70;;;;;;;15.85;45.00;96755.19;5056315;28;20422;-66
2021/04/25 09:55:55;;;;;;;11.70;10.50;;;;;;;15.97;44.57;96766.44;5060952;28;20676;-66
2021/04/25 09:58:20;;;;;;;12.53;9.70;;;;;;;16.01;42.69;96759.59;5065162;28;20985;-64
2021/04/25 10:00:48;;;;;;;11.77;9.87;;;;;;;16.21;42.99;96762.47;5075779;28;20495;-64
2021/04/25 10:03:18;;;;;;;12.77;10.20;;;;;;;16.35;41.27;96753.03;5074871;28;20167;-64
2021/04/25 10:06:05;;;;;;;11.80;9.37;;;;;;;16.42;44.74;96750.97;5069146;28;20413;-63
2021/04/25 10:08:38;;;;;;;10.07;8.77;;;;;;;16.33;44.23;96753.28;5059287;28;20449;-64
2021/04/25 10:11:05;;;;;;;9.70;8.70;;;;;;;16.51;43.15;96756.63;5058339;28;20496;-65
2021/04/25 10:13:33;;;;;;;8.90;8.00;;;;;;;16.76;41.05;96748.91;5075420;28;20422;-63
2021/04/25 10:15:59;;;;;;;9.53;8.53;;;;;;;16.67;41.84;96750.44;5067877;28;20440;-66
2021/04/25 10:18:25;;;;;;;9.53;8.57;;;;;;;16.80;42.65;96750.78;5064549;28;20406;-69
2021/04/25 10:20:55;;;;;;;11.13;8.27;;;;;;;16.87;40.61;96761.16;5063883;28;20424;-65
2021/04/25 10:23:21;;;;;;;11.60;8.73;;;;;;;16.84;40.43;96762.50;5072846;28;20629;-64
2021/04/25 10:25:48;;;;;;;14.70;8.63;;;;;;;16.72;41.81;96755.75;5057794;28;20492;-64
2021/04/25 10:28:25;;;;;;;9.03;7.77;;;;;;;16.98;40.39;96746.91;5055249;28;20406;-64
2021/04/25 10:30:51;;;;;;;9.67;8.60;;;;;;;17.05;38.48;96750.13;5066043;28;20500;-64
2021/04/25 10:33:16;;;;;;;10.90;8.30;;;;;;;17.14;38.08;96751.25;5062028;28;20544;-65
2021/04/25 10:35:56;;;;;;;9.27;8.20;;;;;;;17.10;40.27;96752.84;5075063;28;20564;-67
2021/04/25 10:38:38;;;;;;;7.97;7.17;;;;;;;17.63;37.53;96744.59;5074928;28;20186;-67
2021/04/25 10:41:18;;;;;;;8.40;7.60;;;;;;;17.86;39.24;96738.84;5055376;28;20436;-65
2021/04/25 10:44:05;;;;;;;9.20;8.30;;;;;;;17.92;37.16;96742.31;5055504;28;20424;-64
2021/04/25 10:46:52;;;;;;;9.20;8.13;;;;;;;18.13;38.40;96746.63;5056443;28;20418;-65
2021/04/25 10:49:28;;;;;;;8.90;8.00;;;;;;;18.35;38.05;96732.00;5054887;28;20418;-67
2021/04/25 10:51:53;;;;;;;10.17;7.80;;;;;;;18.54;37.46;96731.50;5055052;28;20429;-64
2021/04/25 10:54:20;;;;;;;10.17;8.47;;;;;;;18.74;37.08;96728.84;5054103;28;20471;-64
2021/04/25 10:57:06;;;;;;;8.40;7.53;;;;;;;18.95;36.37;96733.88;5054191;28;20219;-66
2021/04/25 10:59:33;;;;;;;7.53;6.63;;;;;;;19.16;35.27;96726.66;5055328;28;20908;-66
2021/04/25 11:02:00;;;;;;;8.40;7.50;;;;;;;19.19;35.89;96731.44;5066842;28;20425;-63
2021/04/25 11:04:58;;;;;;;8.33;7.50;;;;;;;19.26;35.36;96729.28;5075015;28;20409;-66
2021/04/25 11:07:34;;;;;;;8.40;7.30;;;;;;;19.31;36.60;96730.09;5054766;28;20410;-66
2021/04/25 11:10:00;;;;;;;10.10;7.73;;;;;;;19.49;33.76;96737.50;5062509;28;20452;-65
2021/04/25 11:12:40;;;;;;;8.40;7.60;;;;;;;19.66;35.30;96723.81;5065862;28;20911;-67
2021/04/25 11:15:07;;;;;;;8.23;6.70;;;;;;;19.80;33.34;96724.03;5074506;28;20632;-65
2021/04/25 11:17:33;;;;;;;7.90;7.00;;;;;;;19.74;34.02;96728.59;5072294;28;20421;-67
2021/04/25 11:19:58;;;;;;;7.10;6.40;;;;;;;19.78;34.48;96718.19;5063911;28;20452;-67
2021/04/25 11:22:45;;;;;;;9.57;7.33;;;;;;;19.93;32.85;96731.44;5064544;28;20614;-66
2021/04/25 11:25:28;;;;;;;7.73;7.00;;;;;;;20.03;34.56;96734.03;5064466;28;20187;-65
2021/04/25 11:27:54;;;;;;;8.23;6.33;;;;;;;20.11;34.05;96726.25;5064248;28;20410;-67